• Join FlightAware (Why Join?)
  • Login
  • US Flag 
06:13PM EST


 

Airport Tracker/Info


-or-


 

Live Flight TrackerFlight Track Log ✈ SWA243 ✈ 30-Jun-2013 ✈ KSAT - KDAL

Flight Track Log - Related Links

Times and Time Zones

All times are in EDT time to prevent confusion due to time zone crossing. See the SWA243 flight status page for this flight to view local times or setup timezone preferences in your user account.

Time Position Orientation Groundspeed Altitude Reporting Facility
EDT Latitude Longitude Course Direction KTS MPH feet Rate Location/Type
08:30PM 29.5464 -98.4922 318° Northwest 148 170 1,800  Level Houston Center
08:31PM 29.5675 -98.5144 318° Northwest 159 183 2,600 1,765 Climbing Houston Center
08:32PM 29.6283 -98.5369 342° North 242 278 4,800 2,927 Climbing Houston Center
08:33PM 29.7039 -98.5167 13° North 275 316 8,600 3,073 Climbing Houston Center
08:34PM 29.7786 -98.4939 15° North 286 329 11,100 2,855 Climbing Houston Center
08:35PM 29.8775 -98.4642 15° North 351 404 14,500 3,000 Climbing Houston Center
08:36PM 29.9697 -98.4361 15° North 346 398 17,300 2,537 Climbing Houston Center
08:37PM 30.0744 -98.4039 15° North 365 420 19,700 2,293 Climbing Houston Center
08:38PM 30.1775 -98.3822 10° North 350 403 22,000 2,129 Climbing Houston Center
08:39PM 30.2786 -98.3681 North 373 429 24,100 2,032 Climbing Houston Center
08:40PM 30.4019 -98.3503 North 393 452 26,200 1,805 Climbing Houston Center
08:41PM 30.5156 -98.3319 North 402 463 27,800 1,366 Climbing Houston Center
08:42PM 30.6328 -98.3161 North 415 478 29,000 581 Climbing Houston Center
08:43PM 30.7489 -98.2989 North 415 478 29,000  Level Houston Center
08:45PM 30.8650 -98.2814 North 415 478 29,000  Level Houston Center
08:46PM 30.9836 -98.2631 North 422 486 29,000  Level Houston Center
08:47PM 31.1022 -98.2328 12° North 431 496 29,000  Level Houston Center
08:48PM 31.2106 -98.1650 28° Northeast 434 499 29,000  Level Houston Center
08:49PM 31.3192 -98.0969 28° Northeast 436 502 29,000  Level Houston Center
08:50PM 31.4294 -98.0283 28° Northeast 438 504 29,000  Level Houston Center
08:51PM 31.5381 -97.9603 28° Northeast 437 503 29,000 -732 Level Houston Center
08:52PM 31.6419 -97.8942 28° Northeast 420 483 27,500 -1,934 Descending Houston Center
08:53PM 31.7386 -97.8336 28° Northeast 399 459 25,100 -2,370 Descending Fort Worth Center
08:54PM 31.8392 -97.7703 28° Northeast 394 453 22,800 -2,250 Descending Fort Worth Center
08:55PM 31.9289 -97.7119 29° Northeast 373 429 20,600 -2,150 Descending Fort Worth Center
08:56PM 32.0106 -97.6583 29° Northeast 347 399 18,500 -2,050 Descending Fort Worth Center
08:57PM 32.0794 -97.6144 28° Northeast 320 368 16,500 -2,050 Descending Fort Worth Center
08:58PM 32.1653 -97.5581 29° Northeast 309 356 14,400 -1,450 Descending Fort Worth Center
08:59PM 32.2319 -97.5164 28° Northeast 304 350 13,600 -1,000 Descending Fort Worth Center
09:00PM 32.3114 -97.4553 33° Northeast 304 350 12,400 -1,050 Descending Fort Worth Center
09:01PM 32.3636 -97.3986 43° Northeast 286 329 11,500 -1,000 Descending Fort Worth Center
09:02PM 32.3739 -97.2906 84° East 278 320 10,400 -1,052 Descending Fort Worth Center
09:02PM 32.3833 -97.2167 81° East 303 349 9,800 -1,052 Descending Dallas / Fort Worth TRACON
09:03PM 32.4000 -97.1333 77° East 295 339 8,700 -1,050 Descending Dallas / Fort Worth TRACON
09:04PM 32.4167 -97.0333 79° East 278 320 7,700 -950 Descending Dallas / Fort Worth TRACON
09:05PM 32.4500 -96.9500 65° Northeast 285 328 6,800 -1,091 Descending Dallas / Fort Worth TRACON
09:06PM 32.4833 -96.8667 65° Northeast 283 326 5,500 -1,339 Descending Dallas / Fort Worth TRACON
09:07PM 32.5167 -96.7833 65° Northeast 258 297 4,100 -750 Descending Dallas / Fort Worth TRACON
09:08PM 32.5833 -96.7833 360° North 261 300 4,000 -550 Descending Dallas / Fort Worth TRACON
09:09PM 32.6500 -96.7833 360° North 252 290 3,000 -500 Descending Dallas / Fort Worth TRACON
09:10PM 32.7167 -96.7667 12° North 227 261 3,000 -350 Level Dallas / Fort Worth TRACON
09:11PM 32.7667 -96.7667 360° North 176 203 2,300 -750 Descending Dallas / Fort Worth TRACON
09:12PM 32.8000 -96.8000 320° Northwest 133 153 1,500 -744 Descending Dallas / Fort Worth TRACON
09:13PM 32.8333 -96.8167 337° Northwest 134 154 800 -689 Descending Dallas / Fort Worth TRACON
09:15PM 32.8333 -96.8500 358° North  Level FlightAware Approximate